Time;durP1;ratioP1;P1;durP2;ratioP2;P2;SDS_P1;SDS_P2;PMS_P1;PMS_P2;Temp;Humidity;BMP_temperature;BMP_pressure;BME280_temperature;BME280_humidity;BME280_pressure;Samples;Min_cycle;Max_cycle;Signal;HPM_P1;HPM_P2
2023/01/10 00:00:42;;;;;;;18.00;14.10;;;;;;;5.11;100.00;95619.20;109449;1266;22563;-83
2023/01/10 00:03:30;;;;;;;17.60;12.80;;;;;;;5.10;100.00;95621.69;109532;1270;22517;-83
2023/01/10 00:06:02;;;;;;;14.30;11.20;;;;;;;5.10;100.00;95622.58;109496;1270;24208;-83
2023/01/10 00:08:33;;;;;;;13.90;10.50;;;;;;;5.09;100.00;95620.42;109465;1264;22675;-84
2023/01/10 00:13:22;;;;;;;14.20;11.00;;;;;;;5.09;100.00;95619.48;109445;1264;22536;-84
2023/01/10 00:13:56;;;;;;;12.80;9.60;;;;;;;5.08;100.00;95619.70;109318;1271;22572;-84
2023/01/10 00:16:27;;;;;;;11.20;9.10;;;;;;;5.07;100.00;95616.55;109341;1270;22548;-84
2023/01/10 00:19:01;;;;;;;10.50;8.10;;;;;;;5.08;100.00;95622.06;109457;1270;22520;-84
2023/01/10 00:21:31;;;;;;;10.80;7.80;;;;;;;5.06;100.00;95619.63;109435;1269;22665;-84
2023/01/10 00:24:15;;;;;;;10.10;7.30;;;;;;;5.05;100.00;95623.77;109492;1270;22524;-84
2023/01/10 00:26:49;;;;;;;11.20;7.80;;;;;;;5.03;100.00;95623.16;109430;1270;22528;-84
2023/01/10 00:29:22;;;;;;;9.50;7.40;;;;;;;5.02;100.00;95625.32;109277;1271;27694;-84
2023/01/10 00:31:54;;;;;;;11.30;8.30;;;;;;;5.02;100.00;95630.36;109487;1270;22538;-85
2023/01/10 00:34:25;;;;;;;11.50;8.50;;;;;;;5.02;100.00;95634.25;109538;1248;22553;-84
2023/01/10 00:36:57;;;;;;;11.20;8.50;;;;;;;5.01;100.00;95633.67;109459;1270;22526;-84
2023/01/10 00:39:28;;;;;;;12.30;8.40;;;;;;;5.00;100.00;95633.78;109410;1270;22552;-84
2023/01/10 00:44:48;;;;;;;10.90;8.80;;;;;;;4.98;100.00;95641.88;109499;1270;22521;-84
2023/01/10 00:47:19;;;;;;;11.70;8.30;;;;;;;4.96;100.00;95643.98;109470;1267;22621;-84
2023/01/10 00:49:50;;;;;;;10.80;8.20;;;;;;;4.94;100.00;95647.52;109385;1260;26566;-84
2023/01/10 00:52:21;;;;;;;11.60;8.30;;;;;;;4.92;100.00;95649.28;109442;1270;22525;-83
2023/01/10 00:54:52;;;;;;;10.90;7.40;;;;;;;4.90;100.00;95649.96;109484;1264;23044;-84
2023/01/10 00:57:24;;;;;;;10.00;7.70;;;;;;;4.89;100.00;95654.97;109422;1270;24149;-83
2023/01/10 00:59:55;;;;;;;9.20;6.80;;;;;;;4.87;100.00;95655.55;109475;1270;24330;-83
2023/01/10 01:02:26;;;;;;;9.80;7.50;;;;;;;4.87;100.00;95659.85;109462;1270;51495;-84
2023/01/10 01:04:57;;;;;;;9.50;6.90;;;;;;;4.86;100.00;95665.63;109487;1267;22633;-84
2023/01/10 01:07:28;;;;;;;11.80;7.70;;;;;;;4.83;100.00;95664.23;109317;1270;22538;-84
2023/01/10 01:12:49;;;;;;;9.20;6.20;;;;;;;4.74;100.00;95669.90;109319;1270;25235;-84
2023/01/10 01:15:20;;;;;;;8.20;5.90;;;;;;;4.71;100.00;95662.92;109478;1270;22524;-84
2023/01/10 01:17:52;;;;;;;9.60;6.40;;;;;;;4.67;100.00;95661.41;109315;1270;22530;-85
2023/01/10 01:20:24;;;;;;;8.60;6.20;;;;;;;4.65;100.00;95663.52;109389;1270;22640;-84
2023/01/10 01:22:55;;;;;;;8.10;6.50;;;;;;;4.63;100.00;95670.21;109317;1264;23833;-85
2023/01/10 01:25:28;;;;;;;11.60;7.80;;;;;;;4.62;100.00;95673.42;109422;1270;25428;-84
2023/01/10 01:27:59;;;;;;;9.90;7.60;;;;;;;4.61;100.00;95673.57;109421;1264;22532;-84
2023/01/10 01:30:30;;;;;;;10.40;7.60;;;;;;;4.60;100.00;95678.40;109516;1270;22547;-85
2023/01/10 01:33:01;;;;;;;11.60;8.10;;;;;;;4.59;100.00;95680.09;109494;1270;22524;-84
2023/01/10 01:35:33;;;;;;;12.20;8.70;;;;;;;4.59;100.00;95681.14;109348;1270;22528;-84
2023/01/10 01:38:04;;;;;;;12.00;8.10;;;;;;;4.58;100.00;95683.97;109493;1267;24305;-84
2023/01/10 01:40:37;;;;;;;12.90;9.00;;;;;;;4.56;100.00;95686.39;109464;1270;22531;-85
2023/01/10 01:43:23;;;;;;;11.60;9.00;;;;;;;4.55;100.00;95689.70;109490;1266;22526;-84
2023/01/10 01:45:58;;;;;;;13.70;10.80;;;;;;;4.54;100.00;95686.56;109532;1260;22927;-85
2023/01/10 01:48:36;;;;;;;15.80;11.90;;;;;;;4.53;100.00;95689.60;109535;1267;22697;-85
2023/01/10 01:51:14;;;;;;;17.40;13.50;;;;;;;4.52;100.00;95686.98;109455;1270;25360;-84
2023/01/10 01:53:49;;;;;;;15.90;13.60;;;;;;;4.53;100.00;95686.45;109433;1270;22542;-84
2023/01/10 01:56:25;;;;;;;19.30;14.40;;;;;;;4.54;100.00;95683.09;109326;1270;143809;-84
2023/01/10 01:59:03;;;;;;;18.30;13.80;;;;;;;4.53;100.00;95683.05;109293;1271;22533;-84
2023/01/10 02:01:35;;;;;;;18.90;15.00;;;;;;;4.52;100.00;95684.98;109440;1270;22514;-84
2023/01/10 02:04:12;;;;;;;17.10;11.90;;;;;;;4.51;100.00;95687.29;109486;1267;22535;-84
2023/01/10 02:06:44;;;;;;;15.20;11.70;;;;;;;4.49;100.00;95685.23;109465;1270;25395;-84
2023/01/10 02:09:23;;;;;;;16.40;12.00;;;;;;;4.47;100.00;95691.68;109438;1270;23199;-84
2023/01/10 02:11:54;;;;;;;15.90;12.40;;;;;;;4.47;100.00;95691.80;109367;1270;22549;-85
2023/01/10 02:14:26;;;;;;;16.80;13.10;;;;;;;4.48;100.00;95691.89;109469;1264;22525;-84
2023/01/10 02:16:57;;;;;;;15.90;13.00;;;;;;;4.46;100.00;95694.94;109468;1267;22525;-84
2023/01/10 02:19:42;;;;;;;17.20;13.10;;;;;;;4.46;100.00;95692.63;109470;1267;22598;-84
2023/01/10 02:22:45;;;;;;;14.10;10.80;;;;;;;4.46;100.00;95696.83;109463;1270;22540;-84
2023/01/10 02:26:02;;;;;;;13.50;10.10;;;;;;;4.44;100.00;95694.20;109379;1270;24259;-84
2023/01/10 02:28:55;;;;;;;12.20;9.40;;;;;;;4.39;100.00;95693.21;108838;1276;22560;-84
2023/01/10 02:31:43;;;;;;;9.90;7.30;;;;;;;4.35;100.00;95696.35;108723;1276;23252;-84
2023/01/10 02:34:22;;;;;;;9.90;7.10;;;;;;;4.30;100.00;95698.08;109296;1264;22582;-84
2023/01/10 02:37:01;;;;;;;9.20;7.00;;;;;;;4.28;100.00;95704.42;109474;1270;22511;-84
2023/01/10 02:39:43;;;;;;;10.70;7.50;;;;;;;4.25;100.00;95706.78;109275;1270;23471;-84
2023/01/10 02:42:22;;;;;;;10.00;7.30;;;;;;;4.23;100.00;95713.59;109429;1270;25405;-84
2023/01/10 02:44:59;;;;;;;10.80;7.10;;;;;;;4.22;100.00;95716.89;109352;1264;22525;-84
2023/01/10 02:47:37;;;;;;;9.20;7.20;;;;;;;4.22;100.00;95715.84;109504;1266;22543;-84
2023/01/10 02:50:53;;;;;;;9.60;7.00;;;;;;;4.21;100.00;95720.66;109372;1267;22544;-84
2023/01/10 02:53:28;;;;;;;8.30;5.80;;;;;;;4.21;100.00;95722.13;108799;1276;28857;-84
2023/01/10 02:56:17;;;;;;;9.90;7.20;;;;;;;4.18;100.00;95726.91;109378;1270;22643;-84
2023/01/10 02:59:06;;;;;;;8.40;6.20;;;;;;;4.16;100.00;95728.05;109295;1271;22540;-84
2023/01/10 03:01:47;;;;;;;10.50;7.70;;;;;;;4.14;100.00;95724.44;109400;1270;25356;-84
2023/01/10 03:04:30;;;;;;;10.00;7.00;;;;;;;4.12;100.00;95730.31;109325;1271;23218;-84
2023/01/10 03:07:09;;;;;;;9.80;7.10;;;;;;;4.12;100.00;95733.35;109440;1264;22531;-84
2023/01/10 03:09:50;;;;;;;10.10;7.70;;;;;;;4.09;100.00;95739.48;109389;1264;22597;-84
2023/01/10 03:12:27;;;;;;;10.90;7.20;;;;;;;4.07;100.00;95741.45;109322;1264;51042;-84
2023/01/10 03:15:00;;;;;;;12.70;8.60;;;;;;;4.07;100.00;95748.85;109516;1266;25420;-84
2023/01/10 03:17:32;;;;;;;10.80;8.20;;;;;;;4.07;100.00;95749.48;109535;1270;26537;-84
2023/01/10 03:20:07;;;;;;;10.90;7.60;;;;;;;4.08;100.00;95750.54;109463;1270;22580;-84
2023/01/10 03:22:41;;;;;;;10.00;7.10;;;;;;;4.07;100.00;95755.67;109488;1270;22545;-84
2023/01/10 03:25:17;;;;;;;9.00;6.90;;;;;;;4.05;100.00;95758.23;109342;1270;25437;-84
2023/01/10 03:27:57;;;;;;;10.10;7.20;;;;;;;4.03;100.00;95759.65;109484;1264;22467;-84
2023/01/10 03:30:33;;;;;;;10.10;6.70;;;;;;;4.03;100.00;95760.44;109394;1270;25396;-84
2023/01/10 03:33:05;;;;;;;9.00;6.20;;;;;;;4.01;100.00;95763.52;109384;1270;40587;-84
2023/01/10 03:35:50;;;;;;;9.40;6.20;;;;;;;4.00;100.00;95771.80;109305;1264;22615;-84
2023/01/10 03:38:27;;;;;;;10.30;7.10;;;;;;;3.99;100.00;95773.70;109339;1270;24101;-84
2023/01/10 03:41:03;;;;;;;8.40;6.00;;;;;;;3.97;100.00;95781.77;109510;1267;22607;-84
2023/01/10 03:46:38;;;;;;;5.80;4.40;;;;;;;3.90;100.00;95790.58;109456;1264;22521;-84
2023/01/10 03:49:11;;;;;;;6.70;4.90;;;;;;;3.86;100.00;95794.35;109461;1264;22553;-84
2023/01/10 03:51:44;;;;;;;5.90;4.40;;;;;;;3.85;100.00;95797.23;109468;1261;23455;-84
2023/01/10 03:54:17;;;;;;;8.50;4.90;;;;;;;3.82;100.00;95802.05;109484;1270;22636;-85
2023/01/10 03:56:50;;;;;;;6.30;4.60;;;;;;;3.79;100.00;95804.42;109428;1267;22548;-84
2023/01/10 03:59:27;;;;;;;6.60;4.70;;;;;;;3.75;100.00;95813.22;109497;1270;22528;-84
2023/01/10 04:01:58;;;;;;;5.90;4.10;;;;;;;3.72;100.00;95809.86;109372;1264;22600;-84
2023/01/10 04:04:31;;;;;;;5.60;4.20;;;;;;;3.67;100.00;95806.36;109473;1264;22529;-83
2023/01/10 04:07:02;;;;;;;5.70;4.40;;;;;;;3.62;100.00;95816.50;109500;1270;22525;-83
2023/01/10 04:09:33;;;;;;;6.00;4.10;;;;;;;3.61;100.00;95816.60;109452;1257;22517;-84
2023/01/10 04:12:04;;;;;;;5.80;4.10;;;;;;;3.59;100.00;95818.63;109421;1264;22700;-84
2023/01/10 04:14:35;;;;;;;4.50;3.70;;;;;;;3.55;100.00;95823.33;109482;1270;22531;-84
2023/01/10 04:17:08;;;;;;;4.70;3.70;;;;;;;3.49;100.00;95825.38;109363;1270;23007;-84
2023/01/10 04:19:39;;;;;;;5.00;4.00;;;;;;;3.45;100.00;95830.70;109356;1267;22518;-84
2023/01/10 04:22:11;;;;;;;5.40;3.70;;;;;;;3.42;100.00;95834.20;109366;1270;34858;-84
2023/01/10 04:24:43;;;;;;;5.90;4.20;;;;;;;3.40;100.00;95829.42;109401;1260;22524;-84
2023/01/10 04:27:14;;;;;;;6.70;4.30;;;;;;;3.39;100.00;95830.41;109427;1264;22565;-84
2023/01/10 04:29:45;;;;;;;7.60;4.70;;;;;;;3.39;100.00;95834.49;109468;1270;22543;-83
2023/01/10 04:32:16;;;;;;;7.40;5.00;;;;;;;3.40;100.00;95838.06;109374;1270;22609;-84
2023/01/10 04:34:47;;;;;;;7.80;5.40;;;;;;;3.37;100.00;95833.31;109436;1264;22529;-84
2023/01/10 04:37:18;;;;;;;7.50;5.40;;;;;;;3.36;100.00;95838.64;109390;1270;22548;-83
2023/01/10 04:39:49;;;;;;;8.60;5.70;;;;;;;3.37;100.00;95839.75;109363;1270;22561;-84
2023/01/10 04:42:20;;;;;;;7.30;4.60;;;;;;;3.38;100.00;95847.77;109445;1264;24278;-84
2023/01/10 04:44:51;;;;;;;7.10;4.90;;;;;;;3.37;100.00;95852.64;109486;1270;22539;-84
2023/01/10 04:47:22;;;;;;;5.00;3.90;;;;;;;3.36;100.00;95854.15;109430;1263;22522;-84
2023/01/10 04:49:53;;;;;;;6.20;4.00;;;;;;;3.35;100.00;95859.55;109465;1264;22535;-84
2023/01/10 04:52:26;;;;;;;6.60;4.60;;;;;;;3.34;100.00;95863.00;109467;1270;22520;-84
2023/01/10 04:54:57;;;;;;;6.90;5.00;;;;;;;3.33;100.00;95870.80;109402;1267;22543;-84
2023/01/10 04:57:28;;;;;;;8.80;5.80;;;;;;;3.31;100.00;95879.06;109468;1270;22579;-84
2023/01/10 04:59:59;;;;;;;8.10;5.40;;;;;;;3.33;100.00;95893.33;109349;1270;22667;-84
2023/01/10 05:02:32;;;;;;;6.90;5.00;;;;;;;3.33;100.00;95900.04;109475;1267;25573;-84
2023/01/10 05:05:04;;;;;;;6.80;4.20;;;;;;;3.34;100.00;95908.68;109447;1264;22563;-84
2023/01/10 05:07:35;;;;;;;6.00;4.00;;;;;;;3.34;100.00;95907.59;109431;1264;23033;-84
2023/01/10 05:10:08;;;;;;;6.20;4.50;;;;;;;3.31;100.00;95903.95;109456;1270;22524;-84
2023/01/10 05:12:39;;;;;;;5.60;4.00;;;;;;;3.30;100.00;95903.73;109275;1270;44106;-84
2023/01/10 05:15:12;;;;;;;5.90;3.90;;;;;;;3.30;100.00;95910.70;109476;1270;23023;-84
2023/01/10 05:17:46;;;;;;;4.80;3.40;;;;;;;3.31;100.00;95917.10;109345;1267;22527;-84
2023/01/10 05:20:17;;;;;;;5.10;3.10;;;;;;;3.29;100.00;95917.88;109474;1270;24255;-84
2023/01/10 05:22:48;;;;;;;4.70;3.30;;;;;;;3.29;100.00;95926.09;109466;1267;24206;-85
2023/01/10 05:25:19;;;;;;;4.50;3.00;;;;;;;3.28;100.00;95930.02;109476;1270;22525;-84
2023/01/10 05:27:52;;;;;;;5.50;3.60;;;;;;;3.27;100.00;95933.84;109478;1270;22544;-85
2023/01/10 05:30:23;;;;;;;4.40;2.90;;;;;;;3.24;100.00;95940.63;109397;1270;22524;-84
2023/01/10 05:32:55;;;;;;;4.90;3.10;;;;;;;3.23;100.00;95946.16;109482;1264;31444;-84
2023/01/10 05:35:26;;;;;;;6.60;3.60;;;;;;;3.21;100.00;95955.92;109337;1271;22532;-84
2023/01/10 05:37:57;;;;;;;5.10;3.20;;;;;;;3.22;100.00;95958.13;109446;1270;22526;-84
2023/01/10 05:40:28;;;;;;;4.30;2.80;;;;;;;3.20;100.00;95958.38;109453;1270;22522;-84
2023/01/10 05:42:59;;;;;;;3.30;2.40;;;;;;;3.18;100.00;95968.05;109467;1270;22539;-84
2023/01/10 05:45:30;;;;;;;4.30;3.00;;;;;;;3.17;100.00;95971.39;109447;1263;22564;-84
2023/01/10 05:48:01;;;;;;;4.20;2.80;;;;;;;3.16;100.00;95969.77;109481;1270;22547;-84
2023/01/10 05:50:32;;;;;;;3.90;2.80;;;;;;;3.14;100.00;95974.52;109439;1270;22536;-83
2023/01/10 05:53:04;;;;;;;3.20;2.50;;;;;;;3.13;100.00;95976.08;109486;1264;22557;-83
2023/01/10 05:55:38;;;;;;;5.50;2.70;;;;;;;3.13;100.00;95983.15;109516;1263;22535;-84
2023/01/10 05:58:10;;;;;;;3.90;2.70;;;;;;;3.11;100.00;95988.58;109239;1250;22513;-83
2023/01/10 06:00:41;;;;;;;4.40;2.80;;;;;;;3.08;100.00;95999.00;109501;1270;22537;-84
2023/01/10 06:03:12;;;;;;;4.90;2.70;;;;;;;3.08;100.00;96004.28;109468;1263;46211;-84
2023/01/10 06:05:43;;;;;;;4.00;2.60;;;;;;;3.07;100.00;96004.28;109368;1267;22548;-84
2023/01/10 06:08:16;;;;;;;4.30;2.50;;;;;;;3.08;100.00;96009.73;109424;1270;22544;-83
2023/01/10 06:10:50;;;;;;;3.80;2.70;;;;;;;3.08;100.00;96011.30;109474;1254;22627;-84
2023/01/10 06:13:21;;;;;;;3.40;2.50;;;;;;;3.07;100.00;96017.67;109473;1270;22514;-84
2023/01/10 06:15:52;;;;;;;3.00;2.30;;;;;;;3.04;100.00;96018.17;109460;1270;24227;-84
2023/01/10 06:18:23;;;;;;;3.80;2.40;;;;;;;3.01;100.00;96020.04;109446;1260;22566;-84
2023/01/10 06:20:55;;;;;;;3.30;2.10;;;;;;;3.01;100.00;96026.69;109479;1270;25268;-84
2023/01/10 06:23:27;;;;;;;3.40;1.90;;;;;;;3.00;100.00;96028.55;109442;1270;22520;-84
2023/01/10 06:25:58;;;;;;;3.40;2.00;;;;;;;2.98;100.00;96033.05;109507;1270;22546;-84
2023/01/10 06:28:30;;;;;;;3.20;1.90;;;;;;;2.98;100.00;96034.52;109445;1270;22544;-84
2023/01/10 06:31:01;;;;;;;2.90;2.10;;;;;;;2.98;100.00;96034.68;109477;1270;24390;-84
2023/01/10 06:33:34;;;;;;;2.60;1.90;;;;;;;2.97;100.00;96036.98;109495;1264;22524;-84
2023/01/10 06:36:06;;;;;;;3.10;1.80;;;;;;;2.98;100.00;96042.48;109488;1266;22528;-84
2023/01/10 06:38:38;;;;;;;3.20;2.20;;;;;;;2.97;100.00;96042.09;109496;1263;25622;-84
2023/01/10 06:41:12;;;;;;;2.60;1.70;;;;;;;2.96;100.00;96045.86;109436;1270;22521;-83
2023/01/10 06:43:45;;;;;;;2.70;2.00;;;;;;;2.98;100.00;96043.79;109468;1270;22539;-84
2023/01/10 06:46:19;;;;;;;2.80;1.80;;;;;;;2.98;100.00;96045.67;109464;1270;24545;-84
2023/01/10 06:48:50;;;;;;;3.60;1.80;;;;;;;2.99;100.00;96045.98;109455;1263;22567;-84
2023/01/10 06:51:21;;;;;;;2.90;1.80;;;;;;;2.97;100.00;96052.15;109447;1263;25520;-83
2023/01/10 06:53:55;;;;;;;2.50;1.70;;;;;;;2.92;100.00;96056.95;109451;1270;22635;-84
2023/01/10 06:56:26;;;;;;;2.10;1.50;;;;;;;2.90;100.00;96059.55;109450;1263;22520;-83
2023/01/10 06:58:57;;;;;;;2.90;1.50;;;;;;;2.86;100.00;96061.91;109391;1270;22532;-84
2023/01/10 07:01:28;;;;;;;2.40;1.70;;;;;;;2.85;100.00;96073.30;109409;1267;22521;-83
2023/01/10 07:04:00;;;;;;;2.70;1.70;;;;;;;2.85;100.00;96083.46;109348;1271;23016;-84
2023/01/10 07:06:31;;;;;;;2.70;1.70;;;;;;;2.83;100.00;96084.33;109415;1270;25436;-84
2023/01/10 07:09:02;;;;;;;2.60;1.70;;;;;;;2.82;100.00;96093.12;109359;1270;22536;-84
2023/01/10 07:11:34;;;;;;;1.50;1.40;;;;;;;2.83;100.00;96097.42;109333;1270;23295;-84
2023/01/10 07:14:05;;;;;;;2.10;1.40;;;;;;;2.82;100.00;96096.05;109420;1270;22562;-84
2023/01/10 07:16:36;;;;;;;2.20;1.40;;;;;;;2.81;100.00;96090.88;109429;1270;22539;-85
2023/01/10 07:19:07;;;;;;;1.40;1.30;;;;;;;2.82;100.00;96089.55;109375;1270;22524;-84
2023/01/10 07:21:39;;;;;;;2.70;1.10;;;;;;;2.83;100.00;96090.20;109396;1263;22551;-84
2023/01/10 07:24:11;;;;;;;2.60;1.30;;;;;;;2.83;100.00;96088.25;109170;1271;22470;-84
2023/01/10 07:26:44;;;;;;;3.30;1.50;;;;;;;2.83;100.00;96085.54;109164;1271;22529;-84
2023/01/10 07:29:15;;;;;;;2.00;1.00;;;;;;;2.81;100.00;96095.95;109107;1272;24280;-84
2023/01/10 07:31:46;;;;;;;1.80;1.20;;;;;;;2.83;100.00;96101.91;109176;1270;23183;-84
2023/01/10 07:34:17;;;;;;;1.60;1.10;;;;;;;2.84;100.00;96108.73;109476;1270;22511;-84
2023/01/10 07:36:48;;;;;;;1.90;1.00;;;;;;;2.76;99.95;96112.70;109452;1270;25230;-84
2023/01/10 07:39:20;;;;;;;1.50;1.10;;;;;;;2.67;99.82;96110.27;109383;1270;22662;-83
2023/01/10 07:41:52;;;;;;;1.20;0.90;;;;;;;2.61;99.70;96101.60;109450;1270;30286;-84
2023/01/10 07:44:23;;;;;;;1.40;1.30;;;;;;;2.60;99.70;96102.69;109475;1270;22858;-83
2023/01/10 07:46:54;;;;;;;1.80;1.30;;;;;;;2.58;99.72;96112.09;109471;1270;22530;-85
2023/01/10 07:49:25;;;;;;;1.80;1.40;;;;;;;2.53;99.84;96123.25;109440;1270;22536;-84
2023/01/10 07:51:57;;;;;;;2.10;1.30;;;;;;;2.47;99.89;96131.11;109449;1270;36173;-84
2023/01/10 07:54:31;;;;;;;1.50;1.10;;;;;;;2.40;99.78;96129.38;109462;1264;22659;-83
2023/01/10 07:57:02;;;;;;;1.20;1.00;;;;;;;2.36;99.86;96128.95;109467;1270;24433;-83
2023/01/10 07:59:33;;;;;;;1.50;1.10;;;;;;;2.33;99.84;96134.14;109450;1266;22568;-83
2023/01/10 08:02:04;;;;;;;1.80;1.10;;;;;;;2.32;99.93;96140.82;109417;1267;23326;-84
2023/01/10 08:04:37;;;;;;;2.00;1.50;;;;;;;2.34;99.92;96153.40;109463;1270;22524;-83
2023/01/10 08:07:10;;;;;;;2.40;1.40;;;;;;;2.33;99.95;96155.49;109428;1263;22644;-83
2023/01/10 08:09:44;;;;;;;3.00;1.50;;;;;;;2.30;99.91;96156.70;109335;1267;22538;-84
2023/01/10 08:12:15;;;;;;;1.60;1.20;;;;;;;2.29;99.77;96160.35;109399;1263;22567;-83
2023/01/10 08:14:46;;;;;;;2.50;1.70;;;;;;;2.27;99.51;96158.90;109448;1270;23745;-83
2023/01/10 08:17:17;;;;;;;3.00;2.20;;;;;;;2.20;99.58;96165.67;109351;1263;23380;-83
2023/01/10 08:19:48;;;;;;;1.50;1.20;;;;;;;2.09;99.45;96161.20;109442;1270;22525;-83
2023/01/10 08:22:19;;;;;;;2.30;1.30;;;;;;;2.03;99.68;96164.03;109406;1270;25346;-83
2023/01/10 08:24:50;;;;;;;2.70;1.90;;;;;;;1.98;99.96;96170.57;109485;1270;25190;-83
2023/01/10 08:27:21;;;;;;;3.70;1.80;;;;;;;1.92;99.97;96174.23;109447;1266;24276;-84
2023/01/10 08:29:52;;;;;;;1.50;1.30;;;;;;;1.86;99.96;96173.86;109441;1270;22543;-83
2023/01/10 08:32:25;;;;;;;1.10;1.00;;;;;;;1.89;100.00;96173.19;109473;1270;24218;-83
2023/01/10 08:34:57;;;;;;;2.20;0.90;;;;;;;1.92;100.00;96184.94;109536;1270;25472;-84
2023/01/10 08:37:29;;;;;;;1.80;0.90;;;;;;;1.93;100.00;96197.39;109426;1270;23831;-84
2023/01/10 08:40:03;;;;;;;1.50;1.20;;;;;;;1.90;100.00;96209.07;109369;1270;22517;-84
2023/01/10 08:42:34;;;;;;;2.30;1.40;;;;;;;1.85;100.00;96216.91;109369;1266;22522;-83
2023/01/10 08:45:10;;;;;;;1.90;1.10;;;;;;;1.75;100.00;96217.40;109436;1263;22521;-84
2023/01/10 08:47:41;;;;;;;1.00;0.80;;;;;;;1.67;100.00;96224.19;109341;1270;22738;-83
2023/01/10 08:50:13;;;;;;;2.30;1.30;;;;;;;1.60;100.00;96221.13;109473;1266;22536;-84
2023/01/10 08:52:44;;;;;;;2.90;1.70;;;;;;;1.55;100.00;96222.67;109419;1263;23064;-83
2023/01/10 08:55:15;;;;;;;2.50;2.00;;;;;;;1.48;100.00;96226.98;109462;1270;22517;-83
2023/01/10 08:57:46;;;;;;;2.20;1.60;;;;;;;1.43;100.00;96235.20;109335;1266;22520;-83
2023/01/10 09:00:19;;;;;;;2.70;2.00;;;;;;;1.43;100.00;96239.43;109285;1263;25427;-83
2023/01/10 09:02:50;;;;;;;2.60;2.10;;;;;;;1.41;100.00;96236.32;109354;1262;52995;-84
2023/01/10 09:05:21;;;;;;;3.20;1.80;;;;;;;1.37;100.00;96235.02;109299;1264;22520;-83
2023/01/10 09:07:53;;;;;;;2.90;1.90;;;;;;;1.39;100.00;96239.23;109428;1263;22571;-84
2023/01/10 09:10:24;;;;;;;1.80;1.40;;;;;;;1.40;100.00;96239.86;109439;1270;22524;-84
2023/01/10 09:12:55;;;;;;;6.30;3.20;;;;;;;1.38;100.00;96243.27;109313;1264;23245;-83
2023/01/10 09:15:28;;;;;;;10.70;7.30;;;;;;;1.36;100.00;96243.12;109356;1270;22545;-83
2023/01/10 09:18:01;;;;;;;26.70;17.00;;;;;;;1.37;100.00;96251.20;109339;1270;23113;-84
2023/01/10 09:20:39;;;;;;;11.30;7.30;;;;;;;1.39;100.00;96266.16;109445;1270;24358;-84
2023/01/10 09:23:16;;;;;;;2.70;1.80;;;;;;;1.38;100.00;96273.31;109392;1264;22570;-84
2023/01/10 09:25:48;;;;;;;22.90;13.80;;;;;;;1.38;100.00;96273.93;109370;1266;22570;-84
2023/01/10 09:28:23;;;;;;;19.40;11.70;;;;;;;1.37;100.00;96270.16;109477;1270;22532;-84
2023/01/10 09:30:54;;;;;;;33.50;18.20;;;;;;;1.36;100.00;96270.23;109329;1270;22513;-84
2023/01/10 09:33:26;;;;;;;5.80;2.90;;;;;;;1.34;100.00;96267.11;109467;1263;22555;-83
2023/01/10 09:35:59;;;;;;;43.80;22.60;;;;;;;1.36;100.00;96269.72;109452;1270;22650;-84
2023/01/10 09:38:32;;;;;;;23.90;13.50;;;;;;;1.36;100.00;96279.86;109403;1270;25294;-84
2023/01/10 09:41:33;;;;;;;24.90;15.70;;;;;;;1.32;100.00;96283.84;109407;1270;22553;-83
2023/01/10 09:44:14;;;;;;;8.00;6.40;;;;;;;1.30;100.00;96289.91;109375;1270;22559;-84
2023/01/10 09:46:53;;;;;;;2.10;1.80;;;;;;;1.27;100.00;96294.85;109450;1270;25402;-83
2023/01/10 09:49:38;;;;;;;2.60;2.10;;;;;;;1.27;100.00;96294.42;109452;1263;22603;-84
2023/01/10 09:52:20;;;;;;;2.70;2.30;;;;;;;1.22;100.00;96296.14;109469;1264;27236;-83
2023/01/10 09:54:53;;;;;;;9.40;4.90;;;;;;;1.19;100.00;96296.08;109330;1266;22528;-84
2023/01/10 09:57:25;;;;;;;5.70;3.70;;;;;;;1.18;100.00;96299.87;109456;1270;22535;-84
2023/01/10 09:59:57;;;;;;;4.40;2.20;;;;;;;1.14;100.00;96303.95;109362;1263;25230;-83
2023/01/10 10:02:33;;;;;;;6.90;4.40;;;;;;;1.07;100.00;96303.16;109448;1270;25341;-83
2023/01/10 10:05:12;;;;;;;9.00;6.30;;;;;;;1.00;100.00;96307.11;109391;1271;22531;-84
2023/01/10 10:07:50;;;;;;;10.80;5.80;;;;;;;0.91;100.00;96311.49;109382;1263;22532;-83
2023/01/10 10:10:24;;;;;;;12.00;6.70;;;;;;;0.85;100.00;96314.56;109431;1270;22561;-84
2023/01/10 10:13:11;;;;;;;7.20;4.30;;;;;;;0.85;100.00;96320.23;109291;1263;22600;-84
2023/01/10 10:15:50;;;;;;;11.60;3.80;;;;;;;0.87;100.00;96319.08;109408;1270;22520;-83
2023/01/10 10:18:32;;;;;;;10.80;4.50;;;;;;;0.84;100.00;96316.30;109444;1266;23268;-83
2023/01/10 10:21:12;;;;;;;19.40;9.30;;;;;;;0.83;100.00;96317.23;109428;1270;23691;-84
2023/01/10 10:24:07;;;;;;;15.60;6.90;;;;;;;0.83;100.00;96317.91;109230;1271;22508;-84
2023/01/10 10:26:50;;;;;;;8.00;3.90;;;;;;;0.90;100.00;96316.49;109218;1271;24275;-83
2023/01/10 10:29:35;;;;;;;9.20;5.00;;;;;;;0.97;100.00;96321.19;109111;1271;23878;-84
2023/01/10 10:32:33;;;;;;;10.70;5.40;;;;;;;0.98;100.00;96325.80;109282;1270;22723;-83
2023/01/10 10:35:13;;;;;;;6.30;3.00;;;;;;;1.00;100.00;96329.00;109332;1270;22530;-84
2023/01/10 10:37:51;;;;;;;8.10;4.10;;;;;;;1.04;100.00;96332.22;109481;1270;24204;-84
2023/01/10 10:40:24;;;;;;;5.90;3.10;;;;;;;1.07;100.00;96335.17;109440;1264;23367;-84
2023/01/10 10:42:59;;;;;;;17.50;9.40;;;;;;;1.12;100.00;96339.09;109464;1266;25026;-84
2023/01/10 10:45:38;;;;;;;13.20;6.70;;;;;;;1.17;100.00;96344.03;109428;1263;22599;-84
2023/01/10 10:48:16;;;;;;;8.00;4.00;;;;;;;1.21;100.00;96350.15;109429;1270;22532;-84
2023/01/10 10:50:56;;;;;;;4.90;3.40;;;;;;;1.24;100.00;96354.40;109434;1263;22550;-85
2023/01/10 10:53:28;;;;;;;3.90;2.70;;;;;;;1.20;100.00;96359.92;109452;1270;22531;-84
2023/01/10 10:56:00;;;;;;;16.20;10.20;;;;;;;1.15;100.00;96357.20;109251;1270;22547;-84
2023/01/10 10:58:32;;;;;;;7.40;4.40;;;;;;;1.11;100.00;96358.75;109371;1263;22633;-84
2023/01/10 11:01:04;;;;;;;11.00;5.90;;;;;;;1.09;100.00;96361.05;109387;1270;22564;-84
2023/01/10 11:03:42;;;;;;;6.50;3.50;;;;;;;1.07;100.00;96358.66;109485;1270;22538;-84
2023/01/10 11:06:18;;;;;;;7.70;3.80;;;;;;;1.07;100.00;96361.11;109314;1270;22531;-84
2023/01/10 11:08:53;;;;;;;6.70;3.80;;;;;;;1.05;100.00;96363.09;109449;1270;22534;-84
2023/01/10 11:11:29;;;;;;;12.50;6.90;;;;;;;1.04;100.00;96365.23;109379;1270;28687;-84
2023/01/10 11:14:03;;;;;;;9.20;4.80;;;;;;;1.07;100.00;96369.77;109356;1270;22548;-84
2023/01/10 11:16:37;;;;;;;11.10;5.70;;;;;;;1.10;100.00;96372.40;109354;1270;22692;-84
2023/01/10 11:19:29;;;;;;;10.30;5.10;;;;;;;1.10;100.00;96374.01;109452;1270;24199;-85
2023/01/10 11:22:02;;;;;;;4.60;2.70;;;;;;;1.06;100.00;96385.05;109283;1270;25460;-84
2023/01/10 11:24:36;;;;;;;9.40;3.60;;;;;;;1.00;100.00;96393.00;109427;1270;23163;-84
2023/01/10 11:27:18;;;;;;;9.20;4.70;;;;;;;0.96;100.00;96404.00;109424;1270;23399;-84
2023/01/10 11:29:52;;;;;;;9.10;4.40;;;;;;;0.93;100.00;96411.81;109453;1263;25293;-85
2023/01/10 11:32:30;;;;;;;11.50;4.90;;;;;;;0.91;100.00;96417.25;109479;1270;22540;-84
2023/01/10 11:35:03;;;;;;;9.40;3.70;;;;;;;0.89;100.00;96422.98;109443;1270;22548;-84
2023/01/10 11:37:36;;;;;;;6.90;3.90;;;;;;;0.87;100.00;96421.08;109420;1270;33405;-84
2023/01/10 11:40:19;;;;;;;7.30;4.40;;;;;;;0.87;100.00;96425.87;109432;1260;22547;-85
2023/01/10 11:42:53;;;;;;;10.80;5.50;;;;;;;0.87;100.00;96427.48;109483;1263;22517;-84
2023/01/10 11:45:31;;;;;;;10.40;6.80;;;;;;;0.85;100.00;96428.90;109437;1270;24485;-84
2023/01/10 11:48:09;;;;;;;7.00;3.70;;;;;;;0.85;100.00;96432.31;109464;1266;22562;-84
2023/01/10 11:50:49;;;;;;;7.90;4.50;;;;;;;0.85;100.00;96441.87;109490;1263;22524;-83
2023/01/10 11:53:39;;;;;;;9.10;5.40;;;;;;;0.81;100.00;96439.89;109374;1263;23868;-84
2023/01/10 11:56:13;;;;;;;9.70;6.00;;;;;;;0.78;100.00;96451.02;109474;1269;22640;-84
2023/01/10 11:58:44;;;;;;;12.10;7.30;;;;;;;0.76;100.00;96461.00;109456;1264;23333;-84
2023/01/10 12:01:32;;;;;;;17.90;11.70;;;;;;;0.75;100.00;96462.42;109457;1270;22548;-84
2023/01/10 12:04:04;;;;;;;6.50;4.00;;;;;;;0.73;100.00;96464.58;109413;1270;22624;-84